Record high temperature 32.9°C Record low temperature -8.5°C Record high gust 255.3 mph Record high average 172.4 mph Record daily rain 43.6 mm Record low windchill -14.8°C Record high barometer 1052.1 hPa Record low barometer 963.2 hPa
Daily high pressure 1047.5 hPa Daily low pressure 1045.3 hPa Daily low windchill -0.1°C Daily high heat index 4.3°C Daily high gust speed 8.1 mph WNW Daily high average speed 5.5 mph WNW
Seaford Weather Data
LAST READING AT TIME: 05:00 DATE: 21 January 2020, time of next update: 05:30
Current WeatherNight time/Dry/Clear Current Temperature 0.6°C (33.1°F), Apparent temp -1.5°C
Maximum Temperature (since midnight)4.3°C at: 1:15 AM Minimum Temperature (since midnight)0.4°C at: 4:29 AM
Average windspeed (ten minute)1.6 mph Wind Direction (ten minute)W (270°)
Windchill Temperature 0.1°C Maximum Gust (last hour)2.2 mph at: 04:56
Maximum Gust (since midnight)8.1 mph at: 00:19 Maximum 1 minute average (since midnight)5.5 mph at: 00:20
Rainfall (last hour)0.0 mm Rainfall (since midnight)0.0 mm (0.00 in.)---
Rainfall This month 45.2 mm (1.78 in.) Rainfall To date this year 45.2 mm (1.78 in.)
Maximum rain per minute (last hour)0.0 mm/min Maximum rain per hour (last 6 hours)0.0 mm/hour
Yesterdays rainfall 0.0 mm DewPoint -0.9°C (Wet Bulb :0.1°C )
Humidity 90 %, Humidex -1.8°C Barometer corrected to msl1045.3 hPa
Pressure change -0.4 hPa (last hour) Trend (last hour)STEADY
Pressure change (last 12 hours)-3.9 hPa Pressure change (last 6 hours)-2.3 hPa
Current 00:00 hours of sunshine today, current sky: Night time/Dry/Clear
Sunshine hours for the year: 35:49 hrs Sunshine hours for the month: 35:49 hrs
Current evapotranspiration rate 0.2 mm per day. Yesterday's reading 0.5


Click here to listen to the current weather conditions


Weather report/warning/Metars

Shoreham Airport, United Kingdom (EGKA) 50-50N 000-17W 0M
Jan 20, 2020 - 02:50 PM EST / 2020.01.20 1950 UTC
Wind: Calm:0
Visibility: greater than 7 mile(s):0
Temperature: 30 F (-1 C)
Dew Point: 28 F (-2 C)
Relative Humidity: 92%
Pressure (altimeter): 30.86 in. Hg (1045 hPa)
ob: EGKA 201950Z 00000KT CAVOK M01/M02 Q1045
cycle: 20
Yeovilton, United Kingdom (EGDY) 51-00N 002-38W 0M
Jan 20, 2020 - 10:50 PM EST / 2020.01.21 0350 UTC
Wind: from the NNE (020 degrees) at 1 MPH (1 KT):0
Visibility: less than 1 mile:0
Sky conditions: obscured
Weather: freezing fog
Temperature: 28 F (-2 C)
Dew Point: 28 F (-2 C)
Relative Humidity: 100%
Pressure (altimeter): 30.80 in. Hg (1043 hPa)
ob: EGDY 210350Z 02001KT 0050 FZFG VV/// M02/M02 Q1043 RED
cycle: 4
Luton Airport , United Kingdom (EGGW) 51-52N 000-22W
Jan 20, 2020 - 11:20 PM EST / 2020.01.21 0420 UTC
Wind: from the SW (230 degrees) at 6 MPH (5 KT):0
Visibility: 1 mile(s):0
Weather: mist
Temperature: 32 F (0 C)
Windchill: 26 F (-3 C):1
Dew Point: 32 F (0 C)
Relative Humidity: 100%
Pressure (altimeter): 30.74 in. Hg (1041 hPa)
ob: EGGW 210420Z AUTO 23005KT 3200 BR NCD M00/M00 Q1041
cycle: 4
Bournemouth Airport, United Kingdom (EGHH) 50-47N 001-50W 0M
Jan 20, 2020 - 02:50 PM EST / 2020.01.20 1950 UTC
Wind: from the NW (320 degrees) at 1 MPH (1 KT):0
Visibility: greater than 7 mile(s):0
Temperature: 30 F (-1 C)
Dew Point: 28 F (-2 C)
Relative Humidity: 92%
Pressure (altimeter): 30.89 in. Hg (1046 hPa)
ob: EGHH 201950Z 32001KT CAVOK M01/M02 Q1046
cycle: 20
Guernsey Airport, United Kingdom (EGJB) 49-26N 002-36W 0M
Jan 20, 2020 - 11:20 PM EST / 2020.01.21 0420 UTC
Wind: from the ENE (070 degrees) at 3 MPH (3 KT):0
Visibility: greater than 7 mile(s):0
Sky conditions: mostly clear
Temperature: 42 F (6 C)
Dew Point: 39 F (4 C)
Relative Humidity: 86%
Pressure (altimeter): 30.74 in. Hg (1041 hPa)
ob: EGJB 210420Z 07003KT 9999 FEW017 06/04 Q1041
cycle: 4
Jersey Airport, United Kingdom (EGJJ) 49-13N 002-12W 0M
Jan 20, 2020 - 11:20 PM EST / 2020.01.21 0420 UTC
Wind: from the ESE (110 degrees) at 8 MPH (7 KT):0
Visibility: greater than 7 mile(s):0
Sky conditions: mostly clear
Temperature: 42 F (6 C)
Dew Point: 37 F (3 C)
Relative Humidity: 81%
Pressure (altimeter): 30.74 in. Hg (1041 hPa)
ob: EGJJ 210420Z AUTO 11007KT 9999 FEW018/// 06/03 Q1041
cycle: 4
London / Gatwick Airport, United Kingdom (EGKK) 51-09N 000-11W 0M
Jan 20, 2020 - 11:20 PM EST / 2020.01.21 0420 UTC
Wind: from the NW (310 degrees) at 2 MPH (2 KT):0
Visibility: 4 mile(s):0
Temperature: 26 F (-3 C)
Dew Point: 26 F (-3 C)
Relative Humidity: 100%
Pressure (altimeter): 30.77 in. Hg (1042 hPa)
ob: EGKK 210420Z 31002KT 8000 NSC M03/M03 Q1042
cycle: 4
London / Heathrow Airport, United Kingdom (EGLL) 51-29N 000-27W 0M
Jan 20, 2020 - 11:20 PM EST / 2020.01.21 0420 UTC
Wind: from the WNW (300 degrees) at 3 MPH (3 KT):0
Visibility: 2 mile(s):0
Weather: mist
Temperature: 30 F (-1 C)
Dew Point: 30 F (-1 C)
Relative Humidity: 100%
Pressure (altimeter): 30.80 in. Hg (1043 hPa)
ob: EGLL 210420Z 30003KT 4500 BR NSC M01/M01 Q1043
cycle: 4
Southend-On-Sea , United Kingdom (EGMC) 51-34N 000-42E
Jan 20, 2020 - 11:20 PM EST / 2020.01.21 0420 UTC
Wind: from the WSW (240 degrees) at 3 MPH (3 KT):0
Visibility: 4 mile(s):0
Temperature: 26 F (-3 C)
Dew Point: 26 F (-3 C)
Relative Humidity: 100%
Pressure (altimeter): 30.77 in. Hg (1042 hPa)
ob: EGMC 210420Z 24003KT 8000 NSC M03/M03 Q1042
cycle: 4
Lydd Airport , United Kingdom (EGMD) 50-57N 000-56E
Jan 20, 2020 - 11:20 PM EST / 2020.01.21 0420 UTC
Wind: from the NW (310 degrees) at 5 MPH (4 KT):0
Visibility: greater than 7 mile(s):0
Temperature: 30 F (-1 C)
Windchill: 24 F (-4 C):1
Dew Point: 30 F (-1 C)
Relative Humidity: 100%
Pressure (altimeter): 30.80 in. Hg (1043 hPa)
ob: EGMD 210420Z AUTO 31004KT 9999 NCD M01/M01 Q1043
cycle: 4
Glasgow Airport, United Kingdom (EGPF) 55-52N 004-26W 0M
Jan 20, 2020 - 11:20 PM EST / 2020.01.21 0420 UTC
Wind: from the SW (220 degrees) at 12 MPH (10 KT):0
Visibility: greater than 7 mile(s):0
Sky conditions: overcast
Temperature: 46 F (8 C)
Dew Point: 44 F (7 C)
Relative Humidity: 93%
Pressure (altimeter): 30.68 in. Hg (1039 hPa)
ob: EGPF 210420Z AUTO 22010KT 9999 OVC009 08/07 Q1039
cycle: 4
Stansted Airport, United Kingdom (EGSS) 51-53N 000-14E 0M
Jan 20, 2020 - 11:20 PM EST / 2020.01.21 0420 UTC
Wind: from the WNW (300 degrees) at 6 MPH (5 KT):0
Visibility: 2 mile(s):0
Weather: mist
Temperature: 30 F (-1 C)
Windchill: 23 F (-5 C):1
Dew Point: 30 F (-1 C)
Relative Humidity: 100%
Pressure (altimeter): 30.77 in. Hg (1042 hPa)
ob: EGSS 210420Z 30005KT 3600 BR NSC M01/M01 Q1042
cycle: 4
Brize Norton, United Kingdom (EGVN) 51-45N 001-35W 0M
Jan 20, 2020 - 11:21 PM EST / 2020.01.21 0421 UTC
Wind: from the SSW (210 degrees) at 2 MPH (2 KT):0
Visibility: 1 mile(s):0
Sky conditions: mostly clear
Weather: mist
Temperature: 26 F (-3 C)
Dew Point: 26 F (-3 C)
Relative Humidity: 100%
Pressure (altimeter): 30.77 in. Hg (1042 hPa)
ob: EGVN 210421Z 21002KT 2800 BR FEW001 M03/M03 Q1042 BECMG 0200 FZFG VV///
cycle: 4



The data is logged at two minute intervals, but there is data recorded every minute. On the graph, the Blue line represents the average windspeed, the Red line is the maximum gust for that interval, and the Green line is what the wind has dropped off to in the same interval. Fuschia is the Barometer, and the dew point and Blue is humidity.

Use the RELOAD facility on your browser to retrieve the latest data.

Click here for a daily update of the averages/extremes to date for the month

Check *Live* Weather

Created by "Weather Display" software version 10.37S at this start time/date 12:09:39 19/01/2020